createdAt,value
2022-10-29T00:00:05.693Z,15.60
2022-10-29T00:00:26.741Z,14.10
2022-10-29T00:00:47.835Z,15.30
2022-10-29T00:01:08.850Z,13.70
2022-10-29T00:01:29.980Z,14.00
2022-10-29T00:01:51.095Z,14.20
2022-10-29T00:02:12.142Z,12.20
2022-10-29T00:02:33.226Z,13.20
2022-10-29T00:02:54.311Z,15.00
2022-10-29T00:03:15.430Z,17.20
2022-10-29T00:03:36.478Z,15.00
2022-10-29T00:03:57.530Z,14.20
2022-10-29T00:04:18.579Z,16.30
2022-10-29T00:04:39.630Z,15.10
2022-10-29T00:05:00.694Z,15.40
2022-10-29T00:05:21.741Z,14.30
2022-10-29T00:05:42.818Z,16.80
2022-10-29T00:06:03.872Z,16.60
2022-10-29T00:06:24.927Z,13.30
2022-10-29T00:06:46.036Z,10.90
2022-10-29T00:07:07.138Z,12.40
2022-10-29T00:07:28.226Z,13.40
2022-10-29T00:07:49.259Z,16.40
2022-10-29T00:08:10.315Z,11.80
2022-10-29T00:08:31.364Z,14.80
2022-10-29T00:08:52.428Z,14.60
2022-10-29T00:09:13.474Z,11.90
2022-10-29T00:09:34.525Z,14.60
2022-10-29T00:09:55.576Z,15.00
2022-10-29T00:10:16.634Z,12.40
2022-10-29T00:10:37.690Z,14.20
2022-10-29T00:10:58.740Z,14.40
2022-10-29T00:11:19.793Z,13.90
2022-10-29T00:11:40.844Z,16.10
2022-10-29T00:12:01.914Z,13.90
2022-10-29T00:12:22.965Z,13.10
2022-10-29T00:12:44.126Z,13.90
2022-10-29T00:13:05.184Z,17.90
2022-10-29T00:13:26.230Z,16.40
2022-10-29T00:13:47.287Z,15.20
2022-10-29T00:14:08.346Z,14.90
2022-10-29T00:14:29.393Z,16.60
2022-10-29T00:14:50.444Z,14.80
2022-10-29T00:15:11.508Z,13.80
2022-10-29T00:15:32.561Z,13.80
2022-10-29T00:15:53.619Z,16.00
2022-10-29T00:16:14.665Z,14.30
2022-10-29T00:16:35.729Z,13.70
2022-10-29T00:16:56.780Z,13.90
2022-10-29T00:17:17.837Z,13.50
2022-10-29T00:17:38.926Z,14.20
2022-10-29T00:17:59.971Z,12.30
2022-10-29T00:18:21.053Z,15.40
2022-10-29T00:18:42.106Z,14.80
2022-10-29T00:19:03.187Z,17.50
2022-10-29T00:19:24.252Z,13.60
2022-10-29T00:19:45.292Z,14.50
2022-10-29T00:20:06.358Z,15.50
2022-10-29T00:20:27.430Z,17.30
2022-10-29T00:20:48.464Z,12.70
2022-10-29T00:21:09.540Z,11.80
2022-10-29T00:21:30.577Z,13.80
2022-10-29T00:21:51.656Z,15.00
2022-10-29T00:22:12.714Z,15.40
2022-10-29T00:22:33.767Z,13.50
2022-10-29T00:22:55.372Z,12.60
2022-10-29T00:23:16.626Z,17.20
2022-10-29T00:23:37.697Z,14.30
2022-10-29T00:23:58.744Z,12.30
2022-10-29T00:24:19.847Z,13.20
2022-10-29T00:24:40.881Z,14.10
2022-10-29T00:25:01.930Z,15.70
2022-10-29T00:25:22.995Z,15.70
2022-10-29T00:25:44.038Z,14.70
2022-10-29T00:26:05.101Z,14.30
2022-10-29T00:26:26.148Z,15.20
2022-10-29T00:26:47.204Z,16.20
2022-10-29T00:27:08.258Z,13.50
2022-10-29T00:27:29.317Z,14.30
2022-10-29T00:27:50.410Z,16.10
2022-10-29T00:28:11.437Z,13.00
2022-10-29T00:28:32.491Z,13.50
2022-10-29T00:28:53.570Z,15.50
2022-10-29T00:29:14.608Z,14.00
2022-10-29T00:29:35.655Z,12.90
2022-10-29T00:29:56.702Z,12.50
2022-10-29T00:30:17.759Z,14.00
2022-10-29T00:30:38.859Z,14.30
2022-10-29T00:30:59.907Z,15.20
2022-10-29T00:31:21.094Z,13.60
2022-10-29T00:31:42.231Z,13.70
2022-10-29T00:32:03.365Z,14.00
2022-10-29T00:32:24.405Z,15.60
2022-10-29T00:32:45.462Z,15.20
2022-10-29T00:33:06.557Z,15.00
2022-10-29T00:33:27.708Z,15.60
2022-10-29T00:33:48.762Z,14.00
2022-10-29T00:34:09.820Z,11.80
2022-10-29T00:34:30.887Z,13.60
2022-10-29T00:34:51.960Z,14.30
2022-10-29T00:35:12.987Z,14.90
2022-10-29T00:35:34.044Z,15.80
2022-10-29T00:35:55.096Z,17.00
2022-10-29T00:36:16.234Z,16.90
2022-10-29T00:36:37.237Z,18.70
2022-10-29T00:36:58.303Z,17.90
2022-10-29T00:37:19.360Z,15.50
2022-10-29T00:37:40.392Z,13.80
2022-10-29T00:38:01.464Z,15.60
2022-10-29T00:38:22.510Z,14.40
2022-10-29T00:38:43.672Z,16.00
2022-10-29T00:39:04.729Z,16.90
2022-10-29T00:39:25.775Z,15.60
2022-10-29T00:39:46.829Z,13.70
2022-10-29T00:40:07.894Z,15.20
2022-10-29T00:40:28.924Z,15.20
2022-10-29T00:40:49.985Z,15.50
2022-10-29T00:41:11.050Z,15.80
2022-10-29T00:41:32.139Z,15.80
2022-10-29T00:41:53.179Z,14.50
2022-10-29T00:42:14.257Z,13.90
2022-10-29T00:42:35.303Z,12.30
2022-10-29T00:42:56.364Z,12.60
2022-10-29T00:43:17.430Z,12.40
2022-10-29T00:43:38.472Z,14.50
2022-10-29T00:43:59.582Z,12.40
2022-10-29T00:44:20.636Z,12.30
2022-10-29T00:44:41.672Z,13.80
2022-10-29T00:45:02.726Z,14.80
2022-10-29T00:45:23.772Z,15.70
2022-10-29T00:45:44.826Z,14.20
2022-10-29T00:46:05.880Z,13.20
2022-10-29T00:46:27.086Z,13.30
2022-10-29T00:46:48.159Z,15.50
2022-10-29T00:47:09.251Z,15.30
2022-10-29T00:47:30.285Z,14.70
2022-10-29T00:47:51.334Z,11.40
2022-10-29T00:48:12.408Z,13.80
2022-10-29T00:48:33.449Z,12.70
2022-10-29T00:48:54.499Z,15.90
2022-10-29T00:49:15.562Z,16.00
2022-10-29T00:49:36.615Z,13.90
2022-10-29T00:49:57.665Z,12.70
2022-10-29T00:50:18.732Z,13.80
2022-10-29T00:50:39.769Z,12.00
2022-10-29T00:51:00.845Z,13.50
2022-10-29T00:51:21.884Z,11.80
2022-10-29T00:51:42.932Z,16.80
2022-10-29T00:52:04.003Z,13.70
2022-10-29T00:52:25.065Z,13.60
2022-10-29T00:52:46.131Z,13.90
2022-10-29T00:53:07.256Z,14.90
2022-10-29T00:53:28.312Z,13.90
2022-10-29T00:53:49.364Z,14.10
2022-10-29T00:54:10.416Z,16.60
2022-10-29T00:54:31.501Z,14.70
2022-10-29T00:54:52.539Z,14.30
2022-10-29T00:55:13.648Z,15.20
2022-10-29T00:55:34.687Z,13.70
2022-10-29T00:55:55.749Z,14.40
2022-10-29T00:56:16.794Z,15.00
2022-10-29T00:56:37.857Z,16.00
2022-10-29T00:56:58.945Z,17.40
2022-10-29T00:57:20.006Z,15.00
2022-10-29T00:57:41.087Z,11.80
2022-10-29T00:58:02.151Z,13.50
2022-10-29T00:58:23.212Z,12.70
2022-10-29T00:58:44.271Z,14.30
2022-10-29T00:59:05.312Z,14.10
2022-10-29T00:59:26.393Z,14.20
2022-10-29T00:59:50.540Z,14.70
2022-10-29T01:00:11.646Z,14.70
2022-10-29T01:00:32.698Z,12.10
2022-10-29T01:00:53.753Z,14.50
2022-10-29T01:01:14.848Z,13.90
2022-10-29T01:01:36.108Z,13.00
2022-10-29T01:01:57.321Z,14.40
2022-10-29T01:02:18.507Z,13.60
2022-10-29T01:02:39.735Z,14.30
2022-10-29T01:03:01.012Z,16.20
2022-10-29T01:03:22.089Z,13.10
2022-10-29T01:03:43.145Z,12.60
2022-10-29T01:04:04.196Z,13.60
2022-10-29T01:04:25.244Z,12.60
2022-10-29T01:04:46.299Z,14.00
2022-10-29T01:05:07.379Z,13.40
2022-10-29T01:05:28.411Z,15.90
2022-10-29T01:05:49.455Z,14.90
2022-10-29T01:06:10.519Z,14.40
2022-10-29T01:06:31.575Z,13.50
2022-10-29T01:06:52.662Z,11.70
2022-10-29T01:07:13.729Z,12.20
2022-10-29T01:07:34.759Z,14.50
2022-10-29T01:07:55.797Z,13.50
2022-10-29T01:08:16.870Z,13.70
2022-10-29T01:08:37.897Z,14.10
2022-10-29T01:08:58.956Z,15.20
2022-10-29T01:09:20.032Z,16.20
2022-10-29T01:09:41.056Z,12.80
2022-10-29T01:10:02.141Z,15.70
2022-10-29T01:10:23.173Z,14.90
2022-10-29T01:10:44.225Z,13.70
2022-10-29T01:11:05.301Z,12.10
2022-10-29T01:11:26.331Z,12.90
2022-10-29T01:11:47.378Z,13.00
2022-10-29T01:12:08.427Z,14.80
2022-10-29T01:12:29.481Z,13.70
2022-10-29T01:12:50.535Z,16.60
2022-10-29T01:13:11.618Z,13.60
2022-10-29T01:13:32.788Z,13.60
2022-10-29T01:13:53.823Z,15.00
2022-10-29T01:14:14.879Z,11.20
2022-10-29T01:14:35.970Z,13.60
2022-10-29T01:14:56.988Z,14.40
2022-10-29T01:15:18.065Z,12.80
2022-10-29T01:15:39.102Z,13.40
2022-10-29T01:16:00.154Z,14.40
2022-10-29T01:16:21.216Z,16.60
2022-10-29T01:16:42.257Z,15.80
2022-10-29T01:17:03.317Z,16.60
2022-10-29T01:17:24.369Z,19.00
2022-10-29T01:17:45.416Z,17.00
2022-10-29T01:18:06.503Z,15.90
2022-10-29T01:18:27.564Z,12.90
2022-10-29T01:18:48.754Z,16.20
2022-10-29T01:19:09.828Z,18.20
2022-10-29T01:19:30.856Z,16.50
2022-10-29T01:19:51.909Z,14.50
2022-10-29T01:20:12.966Z,16.80
2022-10-29T01:20:34.013Z,14.80
2022-10-29T01:20:55.123Z,16.20
2022-10-29T01:21:16.187Z,12.60
2022-10-29T01:21:37.207Z,13.10
2022-10-29T01:21:58.259Z,12.90
2022-10-29T01:22:19.312Z,14.30
2022-10-29T01:22:40.380Z,14.20
2022-10-29T01:23:01.411Z,15.00
2022-10-29T01:23:22.464Z,12.40
2022-10-29T01:23:43.514Z,11.80
2022-10-29T01:24:04.693Z,13.80
2022-10-29T01:24:25.744Z,13.40
2022-10-29T01:24:46.801Z,13.00
2022-10-29T01:25:07.850Z,13.10
2022-10-29T01:25:28.892Z,13.90
2022-10-29T01:25:49.959Z,12.60
2022-10-29T01:26:11.049Z,15.40
2022-10-29T01:26:32.155Z,13.80
2022-10-29T01:26:53.198Z,13.10
2022-10-29T01:27:14.235Z,14.30
2022-10-29T01:27:35.340Z,14.60
2022-10-29T01:27:56.778Z,12.40
2022-10-29T01:28:18.042Z,12.80
2022-10-29T01:28:39.057Z,15.50
2022-10-29T01:29:00.124Z,14.40
2022-10-29T01:29:21.292Z,12.00
2022-10-29T01:29:42.359Z,12.70
2022-10-29T01:30:03.394Z,13.80
2022-10-29T01:30:24.441Z,16.90
2022-10-29T01:30:45.495Z,13.50
2022-10-29T01:31:06.552Z,13.70
2022-10-29T01:31:27.649Z,15.50
2022-10-29T01:31:48.684Z,12.30
2022-10-29T01:32:09.735Z,13.00
2022-10-29T01:32:30.785Z,14.30
2022-10-29T01:32:51.882Z,13.40
2022-10-29T01:33:12.902Z,12.60
2022-10-29T01:33:33.972Z,14.90
2022-10-29T01:33:55.016Z,14.40
2022-10-29T01:34:16.062Z,12.70
2022-10-29T01:34:37.249Z,11.50
2022-10-29T01:34:58.301Z,12.70
2022-10-29T01:35:19.357Z,12.90
2022-10-29T01:35:40.407Z,11.40
2022-10-29T01:36:01.459Z,12.80
2022-10-29T01:36:22.522Z,12.80
2022-10-29T01:36:43.574Z,14.50
2022-10-29T01:37:04.640Z,12.90
2022-10-29T01:37:25.693Z,14.60
2022-10-29T01:37:46.824Z,15.30
2022-10-29T01:38:07.858Z,13.50
2022-10-29T01:38:28.924Z,12.80
2022-10-29T01:38:49.973Z,12.60
2022-10-29T01:39:11.023Z,14.50
2022-10-29T01:39:32.078Z,14.40
2022-10-29T01:39:53.183Z,15.20
2022-10-29T01:40:14.240Z,13.80
2022-10-29T01:40:35.322Z,13.80
2022-10-29T01:40:56.343Z,13.70
2022-10-29T01:41:17.394Z,13.10
2022-10-29T01:41:38.452Z,15.40
2022-10-29T01:41:59.506Z,15.60
2022-10-29T01:42:20.550Z,16.30
2022-10-29T01:42:41.626Z,15.90
2022-10-29T01:43:02.673Z,20.00
2022-10-29T01:43:23.747Z,17.30
2022-10-29T01:43:44.784Z,16.90
2022-10-29T01:44:05.850Z,16.50
2022-10-29T01:44:26.873Z,16.10
2022-10-29T01:44:47.960Z,14.90
2022-10-29T01:45:09.102Z,17.30
2022-10-29T01:45:30.154Z,16.00
2022-10-29T01:45:51.207Z,17.70
2022-10-29T01:46:12.259Z,17.90
2022-10-29T01:46:33.313Z,19.10
2022-10-29T01:46:54.356Z,21.90
2022-10-29T01:47:15.413Z,17.50
2022-10-29T01:47:36.470Z,16.70
2022-10-29T01:47:57.733Z,18.20
2022-10-29T01:51:06.936Z,19.10
2022-10-29T01:51:27.990Z,19.70
2022-10-29T01:51:56.556Z,18.50
2022-10-29T01:52:17.615Z,18.40
2022-10-29T01:52:38.670Z,19.50
2022-10-29T01:52:59.775Z,18.40
2022-10-29T01:53:20.853Z,16.90
2022-10-29T01:53:41.891Z,18.50
2022-10-29T01:54:02.943Z,20.40
2022-10-29T01:54:24.020Z,21.00
2022-10-29T01:54:45.090Z,19.30
2022-10-29T01:55:06.148Z,19.10
2022-10-29T01:55:27.200Z,17.00
2022-10-29T01:55:48.247Z,16.50
2022-10-29T01:56:09.297Z,16.60
2022-10-29T01:56:30.353Z,17.50
2022-10-29T01:56:51.421Z,15.90
2022-10-29T01:57:12.463Z,15.80
2022-10-29T01:57:33.521Z,16.20
2022-10-29T01:57:55.039Z,19.10
2022-10-29T01:58:38.306Z,15.40
2022-10-29T01:58:59.360Z,15.40
2022-10-29T01:59:35.216Z,15.30
2022-10-29T01:59:55.632Z,15.30
2022-10-29T02:00:14.437Z,16.30
2022-10-29T02:00:35.474Z,16.60
2022-10-29T02:00:56.599Z,18.00
2022-10-29T02:01:17.771Z,15.20
2022-10-29T02:01:38.881Z,16.40
2022-10-29T02:01:59.960Z,15.10
2022-10-29T02:02:20.973Z,15.30
2022-10-29T02:02:47.272Z,18.00
2022-10-29T02:03:08.995Z,16.20
2022-10-29T02:03:30.073Z,18.40
2022-10-29T02:03:51.126Z,16.90
2022-10-29T02:04:12.185Z,17.70
2022-10-29T02:04:33.250Z,19.70
2022-10-29T02:04:54.307Z,16.50
2022-10-29T02:05:15.359Z,17.40
2022-10-29T02:05:36.429Z,17.10
2022-10-29T02:05:57.479Z,16.50
2022-10-29T02:06:18.533Z,16.40
2022-10-29T02:06:39.590Z,17.90
2022-10-29T02:07:00.645Z,15.30
2022-10-29T02:07:21.704Z,16.70
2022-10-29T02:07:42.754Z,16.10
2022-10-29T02:08:03.840Z,14.60
2022-10-29T02:08:24.856Z,14.40
2022-10-29T02:08:46.052Z,16.50
2022-10-29T02:09:07.117Z,16.90
2022-10-29T02:09:28.163Z,17.10
2022-10-29T02:09:49.216Z,18.40
2022-10-29T02:10:10.392Z,17.20
2022-10-29T02:10:31.466Z,16.60
2022-10-29T02:10:52.525Z,16.20
2022-10-29T02:11:13.573Z,15.90
2022-10-29T02:11:34.625Z,13.50
2022-10-29T02:11:55.684Z,15.50
2022-10-29T02:12:16.733Z,14.60
2022-10-29T02:12:37.794Z,15.70
2022-10-29T02:12:59.094Z,15.30
2022-10-29T02:13:20.274Z,14.10
2022-10-29T02:13:41.332Z,13.90
2022-10-29T02:14:02.397Z,14.30
2022-10-29T02:14:23.457Z,12.90
2022-10-29T02:14:44.622Z,14.00
2022-10-29T02:15:05.674Z,15.50
2022-10-29T02:15:26.753Z,15.00
2022-10-29T02:15:47.796Z,15.80
2022-10-29T02:16:08.847Z,12.90
2022-10-29T02:16:29.901Z,16.50
2022-10-29T02:16:50.955Z,17.10
2022-10-29T02:17:12.010Z,13.80
2022-10-29T02:17:33.065Z,12.60
2022-10-29T02:17:54.254Z,14.00
2022-10-29T02:18:15.479Z,14.70
2022-10-29T02:18:36.556Z,14.20
2022-10-29T02:18:57.589Z,15.30
2022-10-29T02:19:18.697Z,14.70
2022-10-29T02:19:39.860Z,13.90
2022-10-29T02:20:00.921Z,15.90
2022-10-29T02:20:21.980Z,13.50
2022-10-29T02:20:43.033Z,13.30
2022-10-29T02:21:04.116Z,14.70
2022-10-29T02:21:25.138Z,16.60
2022-10-29T02:21:46.194Z,15.00
2022-10-29T02:22:07.247Z,14.30
2022-10-29T02:22:28.299Z,15.20
2022-10-29T02:22:49.400Z,13.00
2022-10-29T02:23:10.447Z,12.60
2022-10-29T02:23:31.480Z,11.80
2022-10-29T02:23:52.544Z,12.60
2022-10-29T02:24:13.590Z,17.30
2022-10-29T02:24:34.642Z,18.00
2022-10-29T02:24:55.713Z,13.30
2022-10-29T02:25:16.799Z,14.10
2022-10-29T02:25:37.911Z,17.10
2022-10-29T02:25:58.924Z,14.80
2022-10-29T02:26:20.004Z,14.20
2022-10-29T02:26:41.041Z,12.40
2022-10-29T02:27:02.095Z,12.60
2022-10-29T02:27:23.157Z,13.30
2022-10-29T02:27:44.209Z,12.90
2022-10-29T02:28:05.432Z,14.20
2022-10-29T02:28:26.503Z,12.90
2022-10-29T02:28:47.560Z,11.90
2022-10-29T02:29:08.601Z,14.30
2022-10-29T02:29:29.672Z,14.50
2022-10-29T02:29:50.824Z,15.10
2022-10-29T02:30:11.897Z,14.00
2022-10-29T02:30:32.949Z,16.50
2022-10-29T02:30:54.003Z,15.60
2022-10-29T02:31:15.081Z,11.30
2022-10-29T02:31:36.125Z,12.50
2022-10-29T02:31:57.177Z,12.60
2022-10-29T02:32:18.233Z,14.10
2022-10-29T02:32:39.297Z,14.00
2022-10-29T02:33:00.437Z,13.80
2022-10-29T02:33:21.505Z,12.00
2022-10-29T02:33:42.555Z,13.50
2022-10-29T02:34:03.621Z,16.10
2022-10-29T02:34:24.663Z,15.70
2022-10-29T02:34:45.714Z,12.50
2022-10-29T02:35:06.881Z,14.20
2022-10-29T02:35:27.944Z,14.30
2022-10-29T02:35:48.999Z,13.50
2022-10-29T02:36:10.067Z,13.10
2022-10-29T02:36:31.099Z,13.30
2022-10-29T02:36:52.164Z,14.10
2022-10-29T02:37:13.216Z,14.00
2022-10-29T02:37:34.268Z,12.90
2022-10-29T02:37:55.341Z,11.70
2022-10-29T02:38:16.398Z,13.60
2022-10-29T02:38:37.433Z,12.90
2022-10-29T02:38:58.483Z,12.10
2022-10-29T02:39:19.540Z,12.40
2022-10-29T02:39:40.584Z,12.00
2022-10-29T02:40:01.769Z,13.30
2022-10-29T02:40:22.826Z,14.00
2022-10-29T02:40:43.864Z,12.20
2022-10-29T02:41:04.913Z,12.80
2022-10-29T02:41:25.975Z,13.60
2022-10-29T02:41:47.040Z,13.20
2022-10-29T02:42:08.076Z,19.50
2022-10-29T02:42:29.125Z,14.00
2022-10-29T02:42:50.198Z,12.70
2022-10-29T02:43:11.314Z,11.10
2022-10-29T02:43:32.336Z,10.50
2022-10-29T02:43:53.403Z,10.40
2022-10-29T02:44:14.453Z,12.40
2022-10-29T02:44:35.519Z,13.10
2022-10-29T02:44:56.684Z,12.70
2022-10-29T02:45:17.735Z,13.10
2022-10-29T02:45:38.815Z,13.40
2022-10-29T02:45:59.871Z,11.60
2022-10-29T02:46:20.916Z,13.80
2022-10-29T02:46:41.989Z,14.10
2022-10-29T02:47:03.014Z,11.50
2022-10-29T02:47:24.066Z,13.60
2022-10-29T02:47:45.131Z,14.50
2022-10-29T02:48:06.202Z,15.60
2022-10-29T02:48:27.245Z,13.20
2022-10-29T02:48:48.299Z,12.90
2022-10-29T02:49:09.396Z,10.50
2022-10-29T02:49:30.413Z,11.90
2022-10-29T02:49:51.470Z,12.80
2022-10-29T02:50:12.548Z,13.30
2022-10-29T02:50:33.587Z,11.30
2022-10-29T02:50:54.657Z,13.40
2022-10-29T02:51:15.698Z,12.60
2022-10-29T02:51:36.761Z,10.00
2022-10-29T02:51:57.812Z,13.20
2022-10-29T02:52:18.883Z,13.40
2022-10-29T02:52:39.932Z,13.00
2022-10-29T02:53:00.995Z,14.20
2022-10-29T02:53:22.054Z,12.30
2022-10-29T02:53:43.121Z,12.30
2022-10-29T02:54:04.147Z,12.50
2022-10-29T02:54:25.193Z,12.90
2022-10-29T02:54:46.255Z,14.40
2022-10-29T02:55:07.322Z,14.30
2022-10-29T02:55:28.430Z,12.40
2022-10-29T02:55:49.634Z,12.90
2022-10-29T02:56:10.657Z,13.40
2022-10-29T02:56:31.715Z,14.90
2022-10-29T02:56:52.764Z,12.50
2022-10-29T02:57:13.809Z,12.60
2022-10-29T02:57:34.873Z,12.30
2022-10-29T02:57:56.206Z,12.30
2022-10-29T02:58:17.501Z,15.00
2022-10-29T02:58:38.585Z,14.30
2022-10-29T02:58:59.664Z,13.70
2022-10-29T02:59:20.708Z,14.50
2022-10-29T02:59:41.777Z,13.80
2022-10-29T03:00:02.940Z,14.30
2022-10-29T03:00:24.005Z,14.60
2022-10-29T03:00:45.082Z,13.50
2022-10-29T03:01:06.130Z,12.50
2022-10-29T03:01:27.351Z,11.20
2022-10-29T03:01:48.588Z,15.60
2022-10-29T03:02:09.769Z,14.80
2022-10-29T03:02:31.007Z,16.60
2022-10-29T03:02:52.186Z,14.80
2022-10-29T03:03:13.264Z,14.90
2022-10-29T03:03:34.333Z,13.60
2022-10-29T03:03:55.366Z,13.10
2022-10-29T03:04:16.413Z,11.80
2022-10-29T03:04:37.486Z,15.10
2022-10-29T03:04:58.539Z,15.40
2022-10-29T03:05:19.595Z,13.50
2022-10-29T03:05:44.013Z,12.50
2022-10-29T03:06:06.222Z,15.20
2022-10-29T03:06:27.303Z,12.00
2022-10-29T03:06:48.346Z,12.50
2022-10-29T03:07:09.411Z,14.60
2022-10-29T03:07:30.453Z,16.70
2022-10-29T03:07:51.508Z,14.90
2022-10-29T03:08:12.562Z,14.60
2022-10-29T03:08:33.639Z,14.70
2022-10-29T03:08:54.686Z,13.90
2022-10-29T03:09:15.732Z,13.30
2022-10-29T03:09:36.818Z,15.90
2022-10-29T03:09:57.856Z,14.60
2022-10-29T03:10:18.914Z,11.30
2022-10-29T03:10:39.974Z,12.60
2022-10-29T03:11:01.021Z,11.30
2022-10-29T03:11:22.077Z,12.80
2022-10-29T03:11:43.137Z,12.40
2022-10-29T03:12:04.191Z,13.10
2022-10-29T03:12:25.233Z,12.30
2022-10-29T03:12:46.294Z,13.60
2022-10-29T03:13:07.361Z,13.70
2022-10-29T03:13:28.468Z,10.40
2022-10-29T03:13:49.557Z,11.10
2022-10-29T03:14:10.589Z,13.40
2022-10-29T03:14:31.625Z,14.80
2022-10-29T03:14:52.677Z,12.20
2022-10-29T03:15:13.857Z,12.90
2022-10-29T03:15:34.913Z,13.90
2022-10-29T03:15:55.966Z,13.10
2022-10-29T03:16:17.028Z,11.90
2022-10-29T03:16:38.077Z,11.00
2022-10-29T03:16:59.136Z,12.10
2022-10-29T03:17:20.183Z,12.00
2022-10-29T03:17:41.231Z,12.50
2022-10-29T03:18:02.282Z,12.90
2022-10-29T03:18:23.338Z,14.40
2022-10-29T03:18:44.407Z,11.30
2022-10-29T03:19:05.467Z,11.60
2022-10-29T03:19:26.525Z,12.10
2022-10-29T03:19:47.585Z,14.70
2022-10-29T03:20:08.648Z,13.60
2022-10-29T03:20:29.728Z,13.00
2022-10-29T03:20:50.789Z,12.20
2022-10-29T03:21:11.843Z,12.20
2022-10-29T03:21:32.885Z,14.10
2022-10-29T03:21:53.992Z,13.60
2022-10-29T03:22:15.022Z,14.30
2022-10-29T03:22:36.127Z,13.10
2022-10-29T03:22:57.167Z,13.60
2022-10-29T03:23:18.225Z,13.50
2022-10-29T03:23:39.302Z,15.50
2022-10-29T03:24:00.343Z,12.60
2022-10-29T03:24:21.393Z,11.60
2022-10-29T03:24:42.454Z,12.80
2022-10-29T03:25:03.497Z,14.90
2022-10-29T03:25:24.582Z,11.70
2022-10-29T03:25:45.638Z,13.40
2022-10-29T03:26:06.689Z,15.80
2022-10-29T03:26:27.777Z,14.10
2022-10-29T03:26:48.822Z,12.20
2022-10-29T03:27:09.869Z,11.40
2022-10-29T03:27:30.925Z,10.20
2022-10-29T03:27:51.976Z,13.10
2022-10-29T03:28:13.033Z,14.60
2022-10-29T03:28:34.111Z,15.80
2022-10-29T03:28:55.165Z,15.50
2022-10-29T03:29:16.224Z,12.80
2022-10-29T03:29:37.277Z,12.10
2022-10-29T03:29:58.324Z,13.20
2022-10-29T03:30:19.407Z,13.50
2022-10-29T03:30:40.450Z,11.10
2022-10-29T03:31:01.518Z,11.50
2022-10-29T03:31:22.554Z,11.60
2022-10-29T03:31:43.627Z,13.90
2022-10-29T03:32:04.674Z,14.30
2022-10-29T03:32:25.781Z,13.30
2022-10-29T03:32:46.842Z,14.80
2022-10-29T03:33:07.900Z,13.60
2022-10-29T03:33:28.941Z,12.80
2022-10-29T03:33:50.025Z,15.40
2022-10-29T03:34:11.060Z,15.40
2022-10-29T03:34:32.143Z,12.60
2022-10-29T03:34:56.092Z,13.10
2022-10-29T03:35:20.197Z,14.50
2022-10-29T03:35:41.321Z,13.80
2022-10-29T03:36:02.462Z,12.90
2022-10-29T03:36:23.685Z,13.50
2022-10-29T03:36:44.759Z,11.30
2022-10-29T03:37:05.813Z,12.50
2022-10-29T03:37:26.894Z,13.90
2022-10-29T03:37:47.937Z,15.50
2022-10-29T03:38:08.980Z,14.90
2022-10-29T03:38:30.042Z,14.00
2022-10-29T03:38:51.112Z,11.80
2022-10-29T03:39:12.144Z,12.20
2022-10-29T03:39:33.210Z,12.30
2022-10-29T03:39:54.263Z,12.30
2022-10-29T03:40:15.343Z,12.60
2022-10-29T03:40:36.394Z,13.00
2022-10-29T03:40:57.454Z,14.50
2022-10-29T03:41:18.510Z,14.10
2022-10-29T03:41:39.575Z,14.60
2022-10-29T03:42:00.623Z,13.50
2022-10-29T03:42:21.709Z,13.90
2022-10-29T03:42:42.733Z,11.10
2022-10-29T03:43:03.797Z,9.30
2022-10-29T03:43:24.852Z,11.80
2022-10-29T03:43:45.956Z,15.10
2022-10-29T03:44:06.976Z,15.80
2022-10-29T03:44:28.037Z,11.80
2022-10-29T03:44:49.112Z,13.30
2022-10-29T03:45:10.163Z,12.10
2022-10-29T03:45:31.235Z,12.00
2022-10-29T03:45:52.289Z,12.80
2022-10-29T03:46:13.387Z,13.50
2022-10-29T03:46:34.441Z,13.80
2022-10-29T03:46:55.520Z,12.70
2022-10-29T03:47:16.533Z,13.90
2022-10-29T03:47:37.620Z,11.80
2022-10-29T03:47:58.972Z,10.90
2022-10-29T03:48:20.091Z,13.80
2022-10-29T03:48:41.142Z,14.10
2022-10-29T03:49:02.215Z,13.40
2022-10-29T03:49:23.255Z,11.50
2022-10-29T03:49:44.316Z,14.20
2022-10-29T03:50:05.384Z,13.60
2022-10-29T03:50:26.471Z,14.00
2022-10-29T03:50:47.603Z,13.10
2022-10-29T03:51:08.682Z,17.10
2022-10-29T03:51:29.714Z,13.60
2022-10-29T03:51:50.768Z,13.80
2022-10-29T03:52:11.828Z,16.00
2022-10-29T03:52:32.912Z,15.70
2022-10-29T03:52:53.936Z,12.60
2022-10-29T03:53:14.994Z,11.90
2022-10-29T03:53:36.043Z,12.50
2022-10-29T03:53:57.112Z,12.20
2022-10-29T03:54:18.174Z,14.00
2022-10-29T03:54:39.201Z,13.40
2022-10-29T03:55:00.273Z,12.30
2022-10-29T03:55:21.318Z,10.50
2022-10-29T03:55:42.509Z,12.80
2022-10-29T03:56:03.559Z,12.10
2022-10-29T03:56:24.620Z,11.00
2022-10-29T03:56:45.698Z,12.30
2022-10-29T03:57:06.786Z,11.80
2022-10-29T03:57:27.819Z,10.40
2022-10-29T03:57:48.887Z,12.30
2022-10-29T03:58:09.939Z,13.70
2022-10-29T03:58:30.979Z,11.70
2022-10-29T03:58:52.031Z,11.90
2022-10-29T03:59:13.173Z,13.90
2022-10-29T03:59:34.191Z,14.20
2022-10-29T03:59:55.234Z,14.00
2022-10-29T04:00:16.282Z,13.90
2022-10-29T04:00:37.351Z,14.60
2022-10-29T04:00:58.417Z,15.40
2022-10-29T04:01:19.707Z,13.30
2022-10-29T04:01:40.934Z,12.10
2022-10-29T04:02:02.174Z,13.80
2022-10-29T04:02:23.400Z,14.60
2022-10-29T04:02:44.587Z,13.30
2022-10-29T04:03:05.740Z,12.60
2022-10-29T04:03:26.764Z,13.20
2022-10-29T04:03:47.816Z,12.80
2022-10-29T04:04:08.871Z,12.60
2022-10-29T04:04:29.925Z,13.10
2022-10-29T04:04:50.981Z,12.90
2022-10-29T04:05:12.035Z,12.50
2022-10-29T04:05:33.093Z,13.10
2022-10-29T04:05:54.166Z,14.40
2022-10-29T04:06:15.229Z,13.00
2022-10-29T04:06:36.288Z,12.90
2022-10-29T04:06:57.333Z,12.70
2022-10-29T04:07:18.435Z,12.10
2022-10-29T04:07:39.481Z,12.20
2022-10-29T04:08:00.490Z,13.60
2022-10-29T04:08:21.552Z,11.10
2022-10-29T04:08:42.616Z,11.20
2022-10-29T04:09:03.690Z,11.20
2022-10-29T04:09:24.722Z,13.60
2022-10-29T04:09:45.796Z,12.60
2022-10-29T04:10:06.816Z,13.30
2022-10-29T04:10:27.876Z,12.90
2022-10-29T04:10:48.961Z,10.70
2022-10-29T04:11:09.999Z,12.00
2022-10-29T04:11:31.068Z,11.90
2022-10-29T04:11:52.111Z,13.80
2022-10-29T04:12:13.162Z,14.70
2022-10-29T04:12:34.247Z,12.90
2022-10-29T04:12:55.552Z,12.90
2022-10-29T04:13:16.781Z,12.50
2022-10-29T04:13:37.831Z,12.70
2022-10-29T04:13:58.883Z,13.90
2022-10-29T04:14:19.930Z,9.40
2022-10-29T04:14:44.605Z,10.50
2022-10-29T04:15:06.750Z,14.00
2022-10-29T04:15:27.793Z,12.60
2022-10-29T04:15:48.893Z,12.30
2022-10-29T04:16:09.925Z,14.40
2022-10-29T04:16:30.971Z,12.70
2022-10-29T04:16:52.035Z,12.30
2022-10-29T04:17:13.101Z,13.80
2022-10-29T04:17:34.132Z,14.40
2022-10-29T04:17:55.578Z,14.10
2022-10-29T04:18:16.699Z,13.10
2022-10-29T04:18:37.750Z,11.20
2022-10-29T04:18:58.800Z,12.10
2022-10-29T04:19:19.872Z,12.70
2022-10-29T04:19:40.921Z,13.20
2022-10-29T04:20:01.969Z,13.40
2022-10-29T04:20:43.336Z,12.70
2022-10-29T04:23:54.670Z,11.10
2022-10-29T04:24:48.591Z,11.20
2022-10-29T04:28:32.883Z,12.10
2022-10-29T04:28:41.915Z,11.70
2022-10-29T04:28:44.326Z,14.10
2022-10-29T04:28:55.517Z,12.60
2022-10-29T04:29:16.537Z,13.80
2022-10-29T04:29:37.597Z,13.30
2022-10-29T04:29:58.711Z,13.00
2022-10-29T04:30:19.753Z,14.30
2022-10-29T04:30:40.812Z,10.20
2022-10-29T04:31:01.873Z,11.20
2022-10-29T04:31:22.923Z,14.90
2022-10-29T04:31:44.091Z,14.20
2022-10-29T04:32:05.189Z,12.20
2022-10-29T04:32:26.209Z,12.80
2022-10-29T04:32:47.271Z,13.30
2022-10-29T04:33:08.323Z,11.80
2022-10-29T04:33:29.384Z,11.10
2022-10-29T04:33:50.440Z,10.60
2022-10-29T04:34:11.494Z,13.90
2022-10-29T04:34:32.556Z,14.90
2022-10-29T04:34:53.602Z,14.40
2022-10-29T04:35:14.656Z,13.20
2022-10-29T04:35:35.714Z,11.80
2022-10-29T04:35:56.760Z,11.80
2022-10-29T04:36:17.817Z,10.60
2022-10-29T04:36:38.907Z,11.70
2022-10-29T04:36:59.955Z,12.40
2022-10-29T04:37:21.020Z,12.50
2022-10-29T04:37:42.088Z,10.90
2022-10-29T04:38:03.152Z,9.70
2022-10-29T04:38:24.231Z,11.80
2022-10-29T04:38:45.300Z,11.20
2022-10-29T04:39:06.340Z,10.80
2022-10-29T04:39:27.426Z,11.50
2022-10-29T04:39:48.469Z,11.90
2022-10-29T04:40:09.575Z,13.50
2022-10-29T04:40:30.607Z,13.30
2022-10-29T04:40:51.666Z,11.60
2022-10-29T04:41:12.716Z,12.30
2022-10-29T04:41:33.756Z,13.60